CW3847 La Orotava ES current weather conditions

sailwx.info

Wind from 260 at 0 knots gusting 1

Air temperature 18.9° C
Dewpoint 16.1° C

Last reported at 2014-Oct-31 19:16 UTC.
Time now 2014-Nov-01 07:38 UTC

Location: N 28°23' W 016°31'.
View on Google Maps.

See reports from other nearby stations

  
Tides and Currents Weather Stations Pressure Air Temp Water Temp Dewpoint Dewpoint Depression Visibility Wind Speed Wind Dir Waves Ship Positions
date/time (UTC)wind fromknots sea level pressurealtimeterstation pressurevisibilityair tempwater tempwave heightnotes
2014-Oct-31 19:16 260 0 gusting 1 18.9
2014-Oct-31 18:46 260 19.4
2014-Oct-31 18:26 348 0 gusting 0 19.4
2014-Oct-31 18:16 348 0 gusting 1 20.0
2014-Oct-31 18:06 355 0 gusting 1 20.0
2014-Oct-31 17:56 346 1 gusting 1 20.0
2014-Oct-31 17:46 005 1 gusting 2 20.0
2014-Oct-31 17:36 017 1 gusting 2 20.0
2014-Oct-31 17:26 348 2 gusting 3 20.0
2014-Oct-31 17:06 355 2 gusting 2 20.6
2014-Oct-31 16:46 325 0 gusting 2 20.6
2014-Oct-31 16:26 360 0 gusting 1 20.0
2014-Oct-31 16:16 017 1 gusting 2 20.0
2014-Oct-31 15:56 355 1 gusting 2 20.6
2014-Oct-31 15:26 351 2 gusting 6 20.6
2014-Oct-31 15:16 339 2 gusting 4 20.6
2014-Oct-31 15:06 348 3 gusting 4 20.6
2014-Oct-31 14:56 009 1 gusting 2 20.6
2014-Oct-31 14:46 038 1 gusting 2 20.6
2014-Oct-31 14:36 333 4 gusting 6 20.6
2014-Oct-31 14:26 344 1 gusting 3 21.1
2014-Oct-31 14:16 013 2 gusting 5 21.1
2014-Oct-31 14:06 342 2 gusting 3 21.1
2014-Oct-31 13:46 340 1 gusting 2 21.1
2014-Oct-31 13:36 032 1 gusting 2 21.1
2014-Oct-31 13:26 044 2 gusting 3 21.1
2014-Oct-31 13:16 013 2 gusting 2 21.1
2014-Oct-31 13:06 005 4 gusting 4 20.6
2014-Oct-31 12:36 005 2 gusting 4 21.1
2014-Oct-31 12:26 351 3 gusting 5 21.7
2014-Oct-31 11:46 360 2 gusting 4 21.7
2014-Oct-31 11:36 011 1 gusting 3 21.7
2014-Oct-31 11:16 022 3 gusting 3 21.7
2014-Oct-31 11:06 360 2 gusting 3 22.2
2014-Oct-31 10:56 026 1 gusting 2 22.2
2014-Oct-31 10:46 346 2 gusting 3 22.2
2014-Oct-31 10:36 028 0 gusting 1 22.2
2014-Oct-31 10:26 322 0 gusting 1 21.7
2014-Oct-31 10:16 320 0 gusting 1 21.7
2014-Oct-31 09:46 271 0 gusting 0 21.7
2014-Oct-31 09:36 195 0 gusting 0 21.1
2014-Oct-31 09:26 194 1 gusting 1 21.1
2014-Oct-31 08:56 164 2 gusting 2 18.9
2014-Oct-31 08:46 146 3 gusting 4 18.3
2014-Oct-31 08:36 157 4 gusting 4 17.8
2014-Oct-31 08:26 166 3 gusting 4 16.7
2014-Oct-31 08:16 151 3 gusting 6 16.7
2014-Oct-31 07:56 159 2 gusting 2 16.7
2014-Oct-31 07:36 184 4 gusting 5 16.7
2014-Oct-31 07:26 148 2 gusting 4 16.7
2014-Oct-31 07:16 158 5 gusting 7 16.7
2014-Oct-31 07:06 169 3 gusting 4 16.7
2014-Oct-31 06:46 162 4 gusting 4 16.7
2014-Oct-31 06:36 154 2 gusting 4 16.7
2014-Oct-31 06:26 186 2 gusting 5 16.7
2014-Oct-31 06:16 169 4 gusting 6 16.7
2014-Oct-31 06:06 155 6 gusting 7 16.7
2014-Oct-31 05:56 155 5 gusting 5 16.7
2014-Oct-31 05:46 167 2 gusting 4 16.7
2014-Oct-31 05:36 161 2 gusting 3 16.7
2014-Oct-31 05:26 171 2 gusting 3 16.7
2014-Oct-31 05:16 186 1 gusting 3 16.7
2014-Oct-31 05:06 161 4 gusting 4 16.7
2014-Oct-31 04:56 177 2 gusting 4 16.7
2014-Oct-31 04:46 158 4 gusting 5 16.7
2014-Oct-31 04:26 165 4 gusting 4 16.7
2014-Oct-31 04:16 167 3 gusting 6 16.7
2014-Oct-31 04:06 171 3 gusting 3 16.7
2014-Oct-31 03:46 155 5 gusting 5 16.7
2014-Oct-31 03:36 181 2 gusting 4 16.7
2014-Oct-31 03:26 167 2 gusting 3 16.7
2014-Oct-31 03:16 182 4 gusting 4 16.7
2014-Oct-31 02:56 174 3 gusting 4 16.7
2014-Oct-31 02:36 169 5 gusting 5 16.7
2014-Oct-31 02:26 200 2 gusting 6 16.7
2014-Oct-31 02:16 163 2 gusting 2 17.2
2014-Oct-31 02:06 177 2 gusting 4 17.2
2014-Oct-31 01:56 175 2 gusting 3 17.2
2014-Oct-31 01:36 164 2 gusting 3 17.2
2014-Oct-31 01:26 171 2 gusting 3 17.2
2014-Oct-31 01:06 165 4 gusting 5 17.2
2014-Oct-31 00:46 157 3 gusting 3 17.2
2014-Oct-31 00:36 157 4 gusting 5 17.2
2014-Oct-31 00:16 155 2 gusting 4 17.2
2014-Oct-31 00:08 155 5 gusting 5 17.2
2014-Oct-30 23:56 183 4 gusting 5 17.2
2014-Oct-30 23:26 148 3 gusting 4 17.2
2014-Oct-30 23:06 178 2 gusting 5 17.2
2014-Oct-30 22:46 181 2 gusting 3 17.8
2014-Oct-30 22:36 182 1 gusting 3 17.8
2014-Oct-30 22:26 155 4 gusting 5 17.8
2014-Oct-30 22:16 152 2 gusting 4 17.8
2014-Oct-30 22:06 157 1 gusting 3 17.8
2014-Oct-30 21:56 176 2 gusting 2 17.8
2014-Oct-30 21:36 170 3 gusting 3 17.8
2014-Oct-30 21:16 163 1 gusting 2 17.8
2014-Oct-30 20:56 151 2 gusting 3 18.3
2014-Oct-30 20:46 160 2 gusting 3 17.8
2014-Oct-30 20:36 167 3 gusting 4 17.8
2014-Oct-30 20:16 182 2 gusting 4 18.3
2014-Oct-30 20:06 182 2 gusting 3 18.3
2014-Oct-30 19:56 173 1 gusting 3 18.3
2014-Oct-30 19:26 154 2 gusting 2 18.9
2014-Oct-30 19:16 155 0 gusting 0 19.4
2014-Oct-30 19:06 173 1 gusting 1 19.4
2014-Oct-30 18:56 311 0 gusting 1 19.4
2014-Oct-30 18:36 337 0 gusting 1 19.4
2014-Oct-30 18:26 337 0 gusting 0 20.0
2014-Oct-30 18:06 337 20.0
2014-Oct-30 17:56 302 1 gusting 2 20.0
2014-Oct-30 17:46 317 2 gusting 2 20.0
2014-Oct-30 17:36 355 0 gusting 1 20.6
2014-Oct-30 17:26 355 2 gusting 2 20.6
2014-Oct-30 17:06 332 2 gusting 2 20.6
2014-Oct-30 16:56 005 0 gusting 1 20.6
2014-Oct-30 16:36 347 2 gusting 2 21.1
2014-Oct-30 16:26 344 3 gusting 4 21.1
2014-Oct-30 16:16 275 2 gusting 2 21.1
2014-Oct-30 16:06 241 21.1
2014-Oct-30 15:56 285 2 gusting 2 21.1
2014-Oct-30 15:46 282 1 gusting 1 21.1
2014-Oct-30 15:36 311 2 gusting 2 21.1
2014-Oct-30 15:26 311 1 gusting 2 20.6
2014-Oct-30 15:16 322 1 gusting 3 20.6
2014-Oct-30 15:06 355 4 gusting 4 20.6
2014-Oct-30 14:56 284 0 gusting 2 21.1
2014-Oct-30 14:46 348 1 gusting 2 21.1
2014-Oct-30 14:36 312 2 gusting 2 21.1
2014-Oct-30 14:16 348 3 gusting 3 20.6
2014-Oct-30 14:06 355 3 gusting 3 20.6
2014-Oct-30 13:46 016 2 gusting 5 21.1
2014-Oct-30 13:26 344 2 gusting 2 21.1
2014-Oct-30 13:16 012 3 gusting 3 21.7
2014-Oct-30 13:06 286 1 gusting 2 21.1
2014-Oct-30 12:56 019 1 gusting 3 21.1
2014-Oct-30 12:46 340 2 gusting 2 21.1
2014-Oct-30 12:26 048 0 gusting 1 21.1
2014-Oct-30 12:16 345 2 gusting 6 21.1
2014-Oct-30 12:06 350 3 gusting 4 21.1
2014-Oct-30 11:26 328 2 gusting 3 21.1
2014-Oct-30 11:06 311 2 gusting 2 21.1
2014-Oct-30 10:56 345 3 gusting 3 21.1
2014-Oct-30 10:36 030 0 gusting 1 21.1
2014-Oct-30 10:26 331 2 gusting 3 21.1
2014-Oct-30 10:16 336 21.1
2014-Oct-30 09:56 331 1 gusting 1 20.6
2014-Oct-30 09:36 219 0 gusting 0 20.6
2014-Oct-30 09:26 219 0 gusting 1 20.6
2014-Oct-30 09:16 219 20.6
2014-Oct-30 08:56 178 1 gusting 2 19.4
2014-Oct-30 08:46 184 2 gusting 2 18.3
2014-Oct-30 08:36 165 2 gusting 3 17.8
2014-Oct-30 08:26 173 3 gusting 3 16.7
2014-Oct-30 08:16 167 6 gusting 6 16.7
2014-Oct-30 07:56 159 2 gusting 3 16.7
2014-Oct-30 07:46 159 2 gusting 4 16.7
2014-Oct-30 07:26 174 2 gusting 4 16.1
2014-Oct-30 07:16 179 1 gusting 2 16.1
2014-Oct-30 07:06 172 2 gusting 3 16.1